Negotin, Serbia
Current Conditions -  °F | °C
As of 5:30 PM on Wednesday 22 Oct 2014 (Local Time) from LRCV Reporting Station
Clear Clear  
Wind Chill: 16°   Ceiling: Unl
Heat Index: 16°   Visibility: 5mi
Dew Point: 12°   Wind: 12mph
Humidity: 77%   Direction: 50°NE
Pressure: 29.5"   Gusts: NA
Location:  44.23°N, 22.53°E
Report Text: LRCV 221530Z 05010KT 8000 NSC 16/12 Q0999
Loading
Personal Weather Stations






























Interactive Weather Map
Tropical Storm Tracking
New forecast layout! Learn more

10-Day Weather Forecast

Advertisements
Track Severe Weather on mobile